Time;durP1;ratioP1;P1;durP2;ratioP2;P2;SDS_P1;SDS_P2;PMS_P1;PMS_P2;Temp;Humidity;BMP_temperature;BMP_pressure;BME280_temperature;BME280_humidity;BME280_pressure;Samples;Min_cycle;Max_cycle;Signal;HPM_P1;HPM_P2
2022/01/02 09:29:00;;;;;;;2.08;1.25;;;19.50;78.20;;;;;;5112007;27;21257;-51
2022/01/02 09:31:27;;;;;;;4.95;2.00;;;19.50;78.50;;;;;;5111799;28;20071;-47
2022/01/02 09:33:53;;;;;;;9.52;2.88;;;19.70;78.80;;;;;;5111524;28;20108;-48
2022/01/02 09:36:20;;;;;;;9.32;2.92;;;19.90;78.60;;;;;;5105563;28;20048;-47
2022/01/02 09:38:47;;;;;;;10.98;4.10;;;20.10;78.70;;;;;;5091978;28;20113;-43
2022/01/02 09:41:14;;;;;;;12.57;4.78;;;20.40;77.30;;;;;;5090085;28;20048;-42
2022/01/02 09:43:41;;;;;;;13.07;4.82;;;20.60;77.00;;;;;;5073597;28;20134;-46
2022/01/02 09:46:08;;;;;;;16.90;6.65;;;20.70;76.50;;;;;;5057615;28;20454;-45
2022/01/02 09:48:35;;;;;;;12.60;5.05;;;20.90;75.00;;;;;;5073297;28;20044;-48
2022/01/02 09:51:02;;;;;;;13.25;5.25;;;21.10;74.70;;;;;;5073356;28;20080;-45
2022/01/02 09:53:28;;;;;;;15.38;5.25;;;21.20;74.10;;;;;;5095813;28;20039;-47
2022/01/02 09:55:55;;;;;;;15.55;4.68;;;21.30;73.50;;;;;;5082384;28;20487;-46
2022/01/02 09:58:22;;;;;;;11.98;4.95;;;21.40;72.80;;;;;;5090809;28;20450;-49
2022/01/02 10:00:49;;;;;;;15.13;5.78;;;21.50;72.50;;;;;;5090607;28;20461;-44
2022/01/02 10:03:17;;;;;;;14.45;5.53;;;21.50;71.80;;;;;;5091015;28;20105;-47
2022/01/02 10:05:54;;;;;;;13.93;5.53;;;21.70;72.20;;;;;;5090833;28;20045;-51
2022/01/02 10:08:31;;;;;;;12.18;4.60;;;21.80;70.70;;;;;;5089762;28;20044;-47
2022/01/02 10:11:07;;;;;;;15.48;5.30;;;22.00;69.80;;;;;;5091241;28;20044;-50
2022/01/02 10:13:48;;;;;;;10.65;4.72;;;22.00;70.40;;;;;;5089983;28;20040;-44
2022/01/02 10:16:18;;;;;;;10.77;3.90;;;22.00;70.10;;;;;;5075175;28;20087;-46
2022/01/02 10:18:46;;;;;;;11.43;4.05;;;22.00;69.60;;;;;;5073040;28;20052;-46
2022/01/02 10:21:26;;;;;;;13.38;4.18;;;22.10;69.60;;;;;;5089665;28;20083;-45
2022/01/02 10:24:17;;;;;;;10.68;4.45;;;22.20;68.10;;;;;;5091518;28;20071;-46
2022/01/02 10:27:14;;;;;;;9.10;4.03;;;22.30;67.50;;;;;;5070615;28;20117;-46
2022/01/02 10:29:42;;;;;;;9.48;3.65;;;22.40;67.00;;;;;;5050603;28;20049;-45
2022/01/02 10:32:39;;;;;;;12.10;4.00;;;22.40;68.40;;;;;;5070259;28;20506;-43
2022/01/02 10:35:21;;;;;;;10.52;4.32;;;22.50;66.50;;;;;;5049295;28;20079;-48
2022/01/02 10:37:53;;;;;;;8.15;4.93;;;22.60;66.60;;;;;;5070851;28;20082;-46
2022/01/02 10:40:41;;;;;;;8.50;3.53;;;22.80;67.20;;;;;;5055906;28;20091;-47
2022/01/02 10:43:27;;;;;;;15.13;4.20;;;23.10;65.20;;;;;;5065367;28;20061;-50
2022/01/02 10:45:55;;;;;;;8.85;3.33;;;23.20;64.90;;;;;;5075750;28;20053;-43
2022/01/02 10:48:41;;;;;;;9.00;3.88;;;23.30;66.20;;;;;;5068614;28;20041;-47
2022/01/02 10:51:16;;;;;;;7.65;2.92;;;23.40;65.00;;;;;;5059428;28;20106;-46
2022/01/02 10:53:56;;;;;;;7.95;3.10;;;23.30;65.70;;;;;;5075786;28;20044;-47
2022/01/02 10:56:24;;;;;;;8.93;3.33;;;23.30;65.10;;;;;;5076030;28;20044;-43
2022/01/02 10:58:55;;;;;;;7.30;3.25;;;23.20;65.90;;;;;;5060477;28;20057;-50
2022/01/02 11:01:22;;;;;;;8.10;2.90;;;23.10;65.70;;;;;;5058308;28;20052;-46
2022/01/02 11:03:49;;;;;;;7.43;3.13;;;23.10;65.70;;;;;;5076687;28;20064;-46
2022/01/02 11:06:30;;;;;;;9.55;2.95;;;23.10;66.10;;;;;;5058406;28;20067;-43
2022/01/02 11:08:58;;;;;;;6.63;2.67;;;23.10;66.30;;;;;;5043849;28;20044;-47
2022/01/02 11:11:25;;;;;;;8.57;3.43;;;23.00;66.30;;;;;;5075785;28;20459;-42
2022/01/02 11:13:51;;;;;;;4.65;2.72;;;22.80;66.40;;;;;;4979654;28;20326;-52
2022/01/02 11:16:18;;;;;;;14.75;3.85;;;22.90;66.70;;;;;;5036795;28;20051;-51
2022/01/02 11:18:46;;;;;;;7.68;3.47;;;22.80;67.30;;;;;;5036141;28;20380;-50
2022/01/02 11:21:13;;;;;;;9.00;4.05;;;22.70;66.70;;;;;;5034684;28;20053;-50
2022/01/02 11:24:04;;;;;;;10.60;4.22;;;22.60;66.80;;;;;;5036679;28;20045;-48
2022/01/02 11:26:54;;;;;;;10.23;3.13;;;22.60;66.90;;;;;;5036341;28;20061;-48
2022/01/02 11:29:27;;;;;;;10.43;2.83;;;22.50;67.20;;;;;;5036198;28;20083;-50
2022/01/02 11:31:54;;;;;;;9.43;3.25;;;22.40;67.50;;;;;;5036028;28;20119;-50
2022/01/02 11:34:33;;;;;;;5.78;2.55;;;22.40;68.10;;;;;;5034246;28;20073;-52
2022/01/02 11:37:11;;;;;;;6.45;3.30;;;22.40;66.80;;;;;;5036474;28;20049;-53
2022/01/02 11:39:58;;;;;;;7.70;2.50;;;22.40;67.90;;;;;;5035151;28;20053;-52
2022/01/02 11:42:34;;;;;;;7.80;2.88;;;22.40;67.90;;;;;;5035427;28;20053;-53
2022/01/02 11:45:05;;;;;;;7.75;3.10;;;22.40;68.20;;;;;;5035499;28;20115;-53
2022/01/02 11:47:39;;;;;;;6.15;2.60;;;22.40;68.20;;;;;;5034855;28;20112;-49
2022/01/02 11:50:32;;;;;;;5.63;2.88;;;22.40;68.30;;;;;;5034282;28;20056;-54
2022/01/02 11:53:25;;;;;;;7.82;2.58;;;22.40;68.50;;;;;;5035232;28;20076;-50
2022/01/02 11:55:53;;;;;;;6.72;2.70;;;22.40;68.60;;;;;;5035428;28;20073;-49
2022/01/02 11:58:37;;;;;;;6.70;2.45;;;22.30;68.70;;;;;;5035714;28;20123;-52
2022/01/02 12:01:04;;;;;;;5.95;2.20;;;22.30;68.70;;;;;;5034546;28;20119;-53
2022/01/02 12:03:41;;;;;;;5.60;2.65;;;22.30;69.00;;;;;;5035595;28;20399;-52
2022/01/02 12:06:23;;;;;;;5.93;2.25;;;22.30;68.90;;;;;;5034995;28;20045;-53
2022/01/02 12:08:53;;;;;;;5.30;2.38;;;22.40;68.80;;;;;;5035464;28;20068;-51
2022/01/02 12:11:36;;;;;;;7.70;2.30;;;22.40;69.60;;;;;;5035082;28;20054;-52
2022/01/02 12:14:10;;;;;;;6.90;2.47;;;22.30;68.40;;;;;;5034991;28;20053;-47
2022/01/02 12:16:39;;;;;;;3.92;2.30;;;22.40;68.70;;;;;;5035355;28;20072;-49
2022/01/02 12:19:08;;;;;;;6.30;2.30;;;22.30;68.70;;;;;;5034894;28;20084;-48
2022/01/02 12:21:35;;;;;;;;;;;22.30;68.70;;;;;;5033974;28;20049;-50
2022/01/02 12:24:05;;;;;;;4.32;2.40;;;22.30;68.90;;;;;;5035148;28;20315;-49
2022/01/02 12:26:35;;;;;;;4.75;1.80;;;22.30;68.90;;;;;;5033855;28;20089;-49
2022/01/02 12:29:12;;;;;;;4.13;1.50;;;22.30;69.00;;;;;;5035147;28;20073;-51
2022/01/02 12:31:40;;;;;;;5.05;2.17;;;22.30;68.60;;;;;;5034348;28;20498;-51
2022/01/02 12:34:10;;;;;;;6.45;2.05;;;22.30;69.00;;;;;;5033369;28;20103;-50
2022/01/02 12:36:37;;;;;;;5.53;1.90;;;22.30;68.90;;;;;;5035229;28;20073;-54
2022/01/02 12:39:05;;;;;;;6.45;3.35;;;22.30;68.70;;;;;;5035252;28;20073;-49
2022/01/02 12:41:34;;;;;;;4.90;1.80;;;22.30;69.50;;;;;;5033304;28;20073;-47
2022/01/02 12:44:01;;;;;;;4.85;1.80;;;22.30;68.80;;;;;;5034911;28;20060;-49
2022/01/02 12:46:34;;;;;;;3.22;1.80;;;22.30;68.90;;;;;;5032855;28;20135;-46
2022/01/02 12:49:01;;;;;;;4.75;2.22;;;22.30;68.90;;;;;;5033998;28;20053;-48
2022/01/02 12:51:30;;;;;;;5.43;2.03;;;22.30;69.00;;;;;;5034071;28;20038;-48
2022/01/02 12:54:11;;;;;;;4.03;2.17;;;22.30;68.70;;;;;;5033384;28;20073;-49
2022/01/02 12:56:43;;;;;;;4.32;2.03;;;22.40;68.60;;;;;;5033920;28;20069;-49
2022/01/02 12:59:24;;;;;;;4.15;2.25;;;22.40;68.40;;;;;;5033934;28;20072;-51
2022/01/02 13:01:54;;;;;;;4.95;2.15;;;22.50;68.20;;;;;;5032550;28;20149;-50
2022/01/02 13:04:27;;;;;;;5.47;2.20;;;22.40;68.30;;;;;;5034043;28;20492;-50
2022/01/02 13:06:54;;;;;;;5.32;2.15;;;22.40;68.20;;;;;;5033087;28;20480;-50
2022/01/02 13:09:31;;;;;;;6.30;2.10;;;22.30;68.30;;;;;;5033339;28;20042;-49
2022/01/02 13:12:00;;;;;;;6.47;2.80;;;22.30;68.40;;;;;;5032053;28;20511;-49
2022/01/02 13:14:34;;;;;;;4.85;2.45;;;22.20;67.90;;;;;;5033131;28;20448;-51
2022/01/02 13:17:01;;;;;;;5.90;2.75;;;22.30;68.20;;;;;;5033546;28;20077;-54
2022/01/02 13:19:29;;;;;;;4.28;2.47;;;22.40;68.70;;;;;;5033773;28;20520;-56
2022/01/02 13:21:57;;;;;;;3.08;1.95;;;22.50;68.70;;;;;;5032507;28;20049;-53
2022/01/02 13:24:28;;;;;;;4.55;2.50;;;22.50;68.20;;;;;;5033498;28;20053;-50
2022/01/02 13:26:56;;;;;;;6.15;2.50;;;22.60;68.30;;;;;;5036022;28;20186;-47
2022/01/02 13:29:24;;;;;;;4.63;2.33;;;22.60;68.00;;;;;;5053743;28;20115;-47
2022/01/02 13:31:54;;;;;;;5.82;2.60;;;22.60;67.90;;;;;;5052874;28;20072;-47
2022/01/02 13:34:25;;;;;;;4.47;2.00;;;22.60;67.50;;;;;;5052146;28;20049;-51
2022/01/02 13:36:59;;;;;;;5.90;2.90;;;22.60;68.00;;;;;;5053806;28;20410;-49
2022/01/02 13:39:40;;;;;;;5.00;2.80;;;22.50;68.10;;;;;;5033864;28;20045;-49
2022/01/02 13:42:07;;;;;;;5.55;2.28;;;22.50;68.20;;;;;;5051237;28;20076;-48
2022/01/02 13:44:47;;;;;;;3.92;2.17;;;22.40;68.70;;;;;;5036101;28;20095;-49
2022/01/02 13:47:14;;;;;;;5.60;2.42;;;22.40;68.50;;;;;;5034676;28;20508;-46
2022/01/02 13:49:48;;;;;;;5.95;2.45;;;22.30;68.50;;;;;;5053181;28;20136;-49
2022/01/02 13:52:19;;;;;;;3.60;2.15;;;22.30;68.60;;;;;;5053556;28;20076;-52
2022/01/02 13:54:49;;;;;;;3.75;2.42;;;22.30;68.70;;;;;;5051715;28;20463;-51
2022/01/02 13:57:16;;;;;;;4.70;2.35;;;22.30;68.60;;;;;;5053289;28;20440;-47
2022/01/02 13:59:43;;;;;;;5.03;3.15;;;22.30;68.50;;;;;;5034419;28;20060;-46
2022/01/02 14:02:10;;;;;;;3.10;1.80;;;22.20;68.30;;;;;;5052979;28;20435;-47
2022/01/02 14:04:57;;;;;;;3.88;1.90;;;22.30;68.50;;;;;;5032693;28;20060;-47
2022/01/02 14:07:30;;;;;;;4.20;2.13;;;22.20;68.40;;;;;;5052468;28;20049;-49
2022/01/02 14:09:59;;;;;;;4.32;2.03;;;22.20;69.10;;;;;;5052493;28;20076;-49
2022/01/02 14:12:33;;;;;;;4.22;1.98;;;22.20;68.60;;;;;;5052774;28;20072;-52
2022/01/02 14:15:26;;;;;;;3.67;2.08;;;22.20;68.80;;;;;;5041232;28;20040;-50
2022/01/02 14:17:53;;;;;;;4.07;2.17;;;22.20;68.60;;;;;;5055883;28;20073;-48
2022/01/02 14:20:23;;;;;;;6.60;2.50;;;22.30;68.50;;;;;;5055670;28;20069;-48
2022/01/02 14:22:50;;;;;;;3.90;1.98;;;22.30;68.40;;;;;;5056849;28;20430;-49
2022/01/02 14:25:17;;;;;;;4.15;1.75;;;22.30;68.30;;;;;;5056783;28;20065;-54
2022/01/02 14:27:52;;;;;;;5.47;2.10;;;22.30;68.90;;;;;;5037736;28;20077;-49
2022/01/02 14:30:23;;;;;;;6.18;2.40;;;22.40;68.20;;;;;;5036622;28;20069;-49
2022/01/02 14:32:50;;;;;;;6.43;2.38;;;22.40;68.70;;;;;;5033795;28;20069;-47
2022/01/02 14:35:17;;;;;;;5.18;2.17;;;22.50;68.00;;;;;;5036815;28;20103;-46
2022/01/02 14:37:47;;;;;;;4.32;2.33;;;22.50;67.90;;;;;;5037140;28;20046;-50
2022/01/02 14:40:15;;;;;;;5.05;1.73;;;22.60;67.60;;;;;;5036370;28;20050;-53
2022/01/02 14:42:42;;;;;;;3.72;2.38;;;22.70;67.70;;;;;;5037246;28;20065;-55
2022/01/02 14:45:09;;;;;;;3.85;2.72;;;22.70;67.70;;;;;;5037010;28;20096;-55
2022/01/02 14:47:38;;;;;;;5.18;1.85;;;22.70;67.70;;;;;;5035171;28;20533;-55
2022/01/02 14:50:06;;;;;;;;;;;22.80;67.40;;;;;;5037233;28;20092;-47
2022/01/02 14:52:35;;;;;;;13.20;7.82;;;23.00;66.70;;;;;;5036287;28;19976;-49
2022/01/02 14:55:06;;;;;;;45.78;20.02;;;23.00;68.60;;;;;;5034942;28;20107;-47
2022/01/02 14:57:33;;;;;;;21.13;13.40;;;22.90;71.00;;;;;;5035767;28;20075;-51
2022/01/02 15:00:00;;;;;;;22.98;13.85;;;22.90;69.70;;;;;;5017237;28;20164;-50
2022/01/02 15:02:27;;;;;;;22.38;11.50;;;22.90;70.30;;;;;;5035893;28;20056;-48
2022/01/02 15:04:54;;;;;;;18.35;10.82;;;22.90;70.10;;;;;;5035790;28;20176;-48
2022/01/02 15:07:21;;;;;;;17.83;9.15;;;23.00;69.70;;;;;;5034786;28;20081;-46
2022/01/02 15:09:47;;;;;;;15.27;9.10;;;23.00;69.50;;;;;;5035525;28;20132;-46
2022/01/02 15:12:14;;;;;;;13.15;7.80;;;23.10;69.30;;;;;;5035893;28;20072;-46
2022/01/02 15:14:41;;;;;;;14.52;7.85;;;23.00;69.10;;;;;;5034885;28;20088;-46
2022/01/02 15:17:08;;;;;;;12.60;7.03;;;22.80;69.30;;;;;;5035669;28;20408;-47
2022/01/02 15:19:35;;;;;;;13.55;6.85;;;22.70;69.50;;;;;;5034875;28;20080;-46
2022/01/02 15:22:02;;;;;;;12.68;6.40;;;22.60;69.90;;;;;;5034908;28;20080;-46
2022/01/02 15:24:29;;;;;;;11.85;6.05;;;22.50;69.80;;;;;;5035347;28;20510;-47
2022/01/02 15:26:56;;;;;;;10.55;6.47;;;22.50;69.80;;;;;;5038390;28;20088;-46
2022/01/02 15:29:23;;;;;;;14.48;6.70;;;22.40;69.80;;;;;;5056040;28;20088;-46
2022/01/02 15:31:50;;;;;;;11.27;7.03;;;22.40;69.80;;;;;;5055759;28;20091;-46
2022/01/02 15:34:17;;;;;;;9.90;4.95;;;22.40;69.90;;;;;;5055990;28;20115;-45
2022/01/02 15:36:43;;;;;;;12.57;5.30;;;22.40;70.50;;;;;;5056164;28;20068;-48
2022/01/02 15:39:10;;;;;;;8.15;4.50;;;22.40;69.60;;;;;;5055531;28;20080;-50
2022/01/02 15:41:37;;;;;;;8.00;4.45;;;22.50;69.30;;;;;;5054758;28;20135;-48
2022/01/02 15:44:04;;;;;;;8.30;3.92;;;22.50;69.30;;;;;;5038748;28;20085;-46
2022/01/02 15:46:31;;;;;;;9.38;3.85;;;22.50;69.30;;;;;;5054835;28;20156;-45
2022/01/02 15:48:58;;;;;;;8.43;4.13;;;22.50;69.30;;;;;;5055618;28;20045;-48
2022/01/02 15:51:24;;;;;;;8.52;4.03;;;22.50;69.10;;;;;;5055498;28;20091;-49
2022/01/02 15:53:51;;;;;;;7.05;3.20;;;22.60;69.10;;;;;;5057360;28;20067;-47
2022/01/02 15:56:18;;;;;;;7.03;3.20;;;22.50;69.00;;;;;;5054921;28;20103;-48
2022/01/02 15:58:46;;;;;;;5.32;3.55;;;22.60;69.00;;;;;;5055384;28;20079;-50
2022/01/02 16:01:13;;;;;;;6.13;3.22;;;22.60;68.90;;;;;;5053273;28;20159;-46
2022/01/02 16:03:41;;;;;;;5.55;3.00;;;22.70;68.90;;;;;;5055027;28;20076;-49
2022/01/02 16:06:08;;;;;;;7.30;3.70;;;22.70;68.70;;;;;;5054928;28;20041;-48
2022/01/02 16:08:35;;;;;;;5.88;3.00;;;22.70;68.60;;;;;;5053330;28;20076;-50
2022/01/02 16:11:02;;;;;;;4.47;2.60;;;22.70;68.60;;;;;;5020949;28;20045;-48
2022/01/02 16:13:29;;;;;;;4.53;2.42;;;22.70;68.50;;;;;;5053668;28;20055;-48
2022/01/02 16:15:55;;;;;;;4.38;2.45;;;22.70;68.40;;;;;;5037103;28;20072;-47
2022/01/02 16:18:22;;;;;;;4.13;2.60;;;22.60;68.30;;;;;;5054864;28;20048;-46
2022/01/02 16:20:49;;;;;;;4.82;2.53;;;22.60;68.30;;;;;;5054075;28;20068;-46
2022/01/02 16:23:17;;;;;;;4.30;2.03;;;22.60;68.30;;;;;;5054325;28;20057;-47
2022/01/02 16:25:44;;;;;;;5.38;2.00;;;22.70;68.40;;;;;;5035250;28;20084;-47
2022/01/02 16:28:11;;;;;;;3.83;1.83;;;22.70;68.40;;;;;;5053352;28;20080;-48
2022/01/02 16:30:44;;;;;;;4.57;2.20;;;22.70;68.30;;;;;;5053403;28;20099;-48
2022/01/02 16:33:15;;;;;;;5.78;3.00;;;22.70;68.30;;;;;;5054262;28;20259;-48
2022/01/02 16:35:43;;;;;;;4.40;2.08;;;22.70;68.30;;;;;;5054077;28;20069;-49
2022/01/02 16:38:10;;;;;;;4.97;2.35;;;22.70;68.20;;;;;;5036086;28;20487;-48
2022/01/02 16:40:37;;;;;;;4.50;2.25;;;22.70;68.30;;;;;;5053121;28;20460;-50
2022/01/02 16:43:04;;;;;;;11.65;3.30;;;22.70;68.40;;;;;;5036490;28;20118;-48
2022/01/02 16:45:31;;;;;;;3.50;1.98;;;22.70;68.40;;;;;;5054008;28;20076;-47
2022/01/02 16:47:58;;;;;;;2.67;1.90;;;22.70;68.30;;;;;;5035942;28;20059;-47
2022/01/02 16:50:25;;;;;;;4.68;2.00;;;22.70;68.30;;;;;;5052950;28;20483;-51
2022/01/02 16:52:52;;;;;;;3.55;1.92;;;22.80;68.30;;;;;;5037718;28;20040;-48
2022/01/02 16:55:19;;;;;;;3.95;1.73;;;22.80;68.10;;;;;;5054203;28;20107;-46
2022/01/02 16:57:45;;;;;;;3.42;1.75;;;22.80;68.00;;;;;;5054364;28;20091;-47
2022/01/02 17:00:13;;;;;;;2.85;1.58;;;22.80;68.10;;;;;;5052510;28;20140;-46
2022/01/02 17:02:45;;;;;;;2.97;1.45;;;22.80;68.00;;;;;;5053893;28;20048;-47
2022/01/02 17:05:12;;;;;;;3.28;1.60;;;22.70;68.10;;;;;;5051187;28;20509;-46
2022/01/02 17:07:39;;;;;;;2.95;1.98;;;22.70;68.10;;;;;;5052339;28;20041;-46
2022/01/02 17:10:07;;;;;;;3.38;1.77;;;22.70;68.70;;;;;;5053402;28;20053;-46
2022/01/02 17:12:34;;;;;;;2.20;1.20;;;22.70;68.00;;;;;;5054164;28;20079;-47
2022/01/02 17:15:01;;;;;;;3.58;1.83;;;22.70;68.10;;;;;;5034967;28;20053;-46
2022/01/02 17:17:28;;;;;;;3.60;1.80;;;22.70;68.20;;;;;;5053472;28;20480;-50
2022/01/02 17:19:54;;;;;;;3.13;1.58;;;22.70;68.20;;;;;;5052354;28;20045;-51
2022/01/02 17:22:21;;;;;;;4.32;1.77;;;22.60;68.10;;;;;;5053675;28;20073;-48
2022/01/02 17:24:48;;;;;;;3.42;1.40;;;22.70;68.10;;;;;;5055018;28;20045;-52
2022/01/02 17:27:16;;;;;;;5.53;3.15;;;22.70;67.90;;;;;;5035109;28;20053;-47
2022/01/02 17:29:43;;;;;;;4.07;1.57;;;22.70;67.70;;;;;;5053760;28;20134;-49
2022/01/02 17:32:11;;;;;;;3.13;1.63;;;22.70;67.70;;;;;;5054146;28;20431;-49
2022/01/02 17:34:38;;;;;;;3.92;1.70;;;22.80;67.90;;;;;;5053432;28;20088;-54
2022/01/02 17:37:05;;;;;;;6.03;1.90;;;22.80;67.60;;;;;;5054265;28;20077;-48
2022/01/02 17:39:32;;;;;;;3.58;1.48;;;22.90;67.40;;;;;;5052834;28;20127;-51
2022/01/02 17:42:01;;;;;;;2.83;1.63;;;22.90;67.50;;;;;;5054196;28;20084;-51
2022/01/02 17:44:29;;;;;;;5.55;1.85;;;23.00;67.30;;;;;;5052794;28;20111;-50
2022/01/02 17:46:56;;;;;;;3.60;1.45;;;23.10;67.00;;;;;;5053059;28;20076;-51
2022/01/02 17:49:23;;;;;;;3.58;1.42;;;23.20;66.80;;;;;;5038448;28;20114;-48
2022/01/02 17:51:50;;;;;;;3.08;1.70;;;23.20;66.50;;;;;;5057207;28;20052;-47
2022/01/02 17:54:17;;;;;;;3.28;1.52;;;23.30;66.30;;;;;;5057607;28;20049;-50
2022/01/02 17:56:44;;;;;;;3.67;1.20;;;23.40;66.00;;;;;;5040206;28;20084;-51
2022/01/02 17:59:12;;;;;;;3.22;1.17;;;23.50;66.60;;;;;;5056934;28;20045;-55
2022/01/02 18:01:39;;;;;;;3.78;1.58;;;23.50;65.80;;;;;;5056479;28;20041;-53
2022/01/02 18:04:08;;;;;;;2.65;1.20;;;23.50;65.70;;;;;;5057195;28;20079;-48
2022/01/02 18:06:34;;;;;;;2.97;1.30;;;23.40;65.80;;;;;;5055750;28;20471;-52
2022/01/02 18:09:09;;;;;;;3.20;1.27;;;23.30;66.00;;;;;;5057089;28;20080;-48
2022/01/02 18:11:38;;;;;;;4.57;1.77;;;23.30;66.80;;;;;;5056667;28;20084;-47
2022/01/02 18:14:05;;;;;;;2.95;1.13;;;23.20;66.90;;;;;;5055754;28;20102;-49
2022/01/02 18:16:32;;;;;;;3.67;1.90;;;23.20;66.20;;;;;;5054620;28;20041;-46
2022/01/02 18:18:59;;;;;;;4.05;1.92;;;23.20;66.20;;;;;;5053041;28;20049;-50
2022/01/02 18:21:26;;;;;;;2.15;1.40;;;23.10;66.30;;;;;;5052441;28;20567;-53
2022/01/02 18:23:55;;;;;;;2.13;1.10;;;23.10;66.40;;;;;;5037395;28;20103;-55
2022/01/02 18:26:25;;;;;;;2.80;1.23;;;23.00;66.60;;;;;;5053397;28;20049;-55
2022/01/02 18:28:53;;;;;;;3.58;1.40;;;23.00;66.80;;;;;;5052071;28;20192;-51
2022/01/02 18:31:20;;;;;;;2.88;0.90;;;23.00;66.80;;;;;;5054332;28;20072;-54
2022/01/02 18:33:47;;;;;;;4.32;1.90;;;23.10;66.80;;;;;;5053589;28;20059;-53
2022/01/02 18:36:14;;;;;;;4.63;1.17;;;23.00;66.90;;;;;;5052132;28;20813;-54
2022/01/02 18:38:41;;;;;;;3.85;1.27;;;22.90;67.00;;;;;;5049011;28;20117;-54
2022/01/02 18:41:08;;;;;;;3.33;1.40;;;22.90;67.20;;;;;;5052603;28;20048;-52
2022/01/02 18:43:35;;;;;;;3.10;1.42;;;22.80;67.30;;;;;;5036657;28;20456;-50
2022/01/02 18:46:02;;;;;;;3.38;1.30;;;22.80;67.40;;;;;;5052703;28;20087;-51
2022/01/02 18:48:29;;;;;;;4.50;1.20;;;22.80;67.60;;;;;;5034324;28;20049;-46
2022/01/02 18:50:57;;;;;;;3.83;1.60;;;22.80;67.50;;;;;;5053159;28;20080;-48
2022/01/02 18:53:24;;;;;;;2.15;1.10;;;22.80;68.00;;;;;;5037226;28;20088;-49
2022/01/02 18:55:50;;;;;;;2.00;1.02;;;22.80;67.20;;;;;;5051253;28;20459;-47
2022/01/02 18:58:17;;;;;;;2.42;0.90;;;22.90;67.30;;;;;;5053587;28;20091;-47
2022/01/02 19:00:44;;;;;;;2.95;0.93;;;22.90;67.30;;;;;;5034815;28;20127;-48
2022/01/02 19:03:12;;;;;;;2.75;1.25;;;22.80;67.20;;;;;;5053716;28;20049;-48
2022/01/02 19:05:38;;;;;;;1.73;0.80;;;22.90;67.40;;;;;;5053213;28;20076;-48
2022/01/02 19:08:05;;;;;;;2.88;1.00;;;22.90;67.40;;;;;;5052680;28;20079;-48
2022/01/02 19:10:32;;;;;;;3.38;1.25;;;22.90;67.30;;;;;;5036428;28;20122;-48
2022/01/02 19:12:59;;;;;;;1.67;0.95;;;22.90;67.30;;;;;;5052489;28;20118;-49
2022/01/02 19:15:26;;;;;;;2.83;1.60;;;22.90;67.10;;;;;;5053284;28;20103;-48
2022/01/02 19:17:53;;;;;;;2.42;1.20;;;22.90;67.20;;;;;;5053200;28;20091;-50
2022/01/02 19:20:20;;;;;;;2.30;0.85;;;22.90;67.00;;;;;;5051555;28;20087;-49
2022/01/02 19:22:47;;;;;;;3.25;1.42;;;22.90;67.20;;;;;;5035375;28;20106;-47
2022/01/02 19:25:14;;;;;;;3.08;1.45;;;22.90;67.20;;;;;;5053521;28;20052;-47
2022/01/02 19:27:41;;;;;;;3.28;1.40;;;22.90;67.20;;;;;;5051788;28;20049;-50
2022/01/02 19:30:09;;;;;;;2.10;0.90;;;22.90;67.10;;;;;;5051191;28;20459;-50
2022/01/02 19:32:36;;;;;;;2.30;1.13;;;22.90;67.10;;;;;;5053276;28;20084;-50
2022/01/02 19:35:03;;;;;;;2.45;1.27;;;22.90;67.10;;;;;;5052175;28;20045;-49
2022/01/02 19:37:30;;;;;;;4.20;1.33;;;22.90;67.10;;;;;;5053580;28;20051;-51
2022/01/02 19:39:57;;;;;;;2.47;1.20;;;22.90;67.00;;;;;;5052004;28;20130;-47
2022/01/02 19:42:24;;;;;;;2.35;0.95;;;22.90;66.90;;;;;;5052446;28;20475;-48
2022/01/02 19:44:51;;;;;;;2.72;1.00;;;23.00;67.10;;;;;;5035969;28;20076;-48
2022/01/02 19:47:18;;;;;;;2.20;1.00;;;23.00;67.00;;;;;;5052276;28;20060;-48
2022/01/02 19:49:45;;;;;;;5.55;1.35;;;23.00;66.90;;;;;;5052142;28;20092;-48
2022/01/02 19:52:12;;;;;;;3.15;1.10;;;23.00;66.90;;;;;;5052603;28;20122;-49
2022/01/02 19:54:40;;;;;;;1.92;1.10;;;23.00;66.90;;;;;;5052060;28;20535;-48
2022/01/02 19:57:07;;;;;;;3.10;1.65;;;23.00;66.90;;;;;;5053137;28;20052;-47
2022/01/02 19:59:34;;;;;;;4.40;1.30;;;23.00;66.90;;;;;;5051072;28;20483;-52
2022/01/02 20:02:01;;;;;;;2.72;1.30;;;23.00;66.80;;;;;;5052904;28;20133;-49
2022/01/02 20:04:28;;;;;;;2.30;1.00;;;23.00;66.80;;;;;;5052200;28;20063;-49
2022/01/02 20:06:55;;;;;;;3.42;1.50;;;23.00;66.70;;;;;;5018585;28;20049;-47
2022/01/02 20:09:22;;;;;;;3.83;1.20;;;23.00;66.60;;;;;;5035785;28;20609;-48
2022/01/02 20:11:50;;;;;;;3.00;1.60;;;23.00;66.50;;;;;;5051777;28;20089;-52
2022/01/02 20:14:17;;;;;;;2.60;1.00;;;22.90;66.40;;;;;;5052200;28;20161;-49
2022/01/02 20:16:44;;;;;;;2.85;1.10;;;22.90;66.40;;;;;;5052914;28;20056;-51
2022/01/02 20:19:11;;;;;;;2.58;1.08;;;22.90;66.40;;;;;;5052206;28;20399;-48
2022/01/02 20:21:38;;;;;;;5.30;1.13;;;22.80;66.40;;;;;;5051601;28;20088;-48
2022/01/02 20:24:05;;;;;;;3.45;1.00;;;22.90;66.70;;;;;;5053204;28;20053;-52
2022/01/02 20:26:32;;;;;;;2.75;1.50;;;22.80;66.70;;;;;;5051427;28;20163;-47
2022/01/02 20:29:18;;;;;;;2.55;1.15;;;22.80;66.70;;;;;;5035881;28;20049;-53
2022/01/02 20:31:45;;;;;;;2.22;0.82;;;22.80;66.80;;;;;;5052856;28;20088;-50
2022/01/02 20:34:12;;;;;;;2.95;1.15;;;22.80;66.80;;;;;;5034193;28;20056;-49
2022/01/02 20:36:39;;;;;;;1.25;0.65;;;22.80;66.80;;;;;;5035230;28;20052;-49
2022/01/02 20:39:07;;;;;;;3.58;1.30;;;22.80;66.90;;;;;;5052772;28;20124;-48
2022/01/02 20:41:54;;;;;;;3.80;1.40;;;22.80;66.80;;;;;;5050749;28;20053;-50
2022/01/02 20:44:21;;;;;;;2.28;1.10;;;22.80;66.80;;;;;;5035214;28;20084;-49
2022/01/02 20:46:48;;;;;;;2.92;1.15;;;22.80;66.80;;;;;;5051527;28;20494;-51
2022/01/02 20:49:15;;;;;;;2.00;0.90;;;22.80;66.60;;;;;;5052084;28;20052;-47
2022/01/02 20:51:42;;;;;;;1.88;0.95;;;22.80;66.60;;;;;;5035453;28;20130;-51
2022/01/02 20:54:09;;;;;;;2.20;0.90;;;22.80;66.70;;;;;;5050800;28;20488;-50
2022/01/02 20:56:35;;;;;;;3.85;1.40;;;22.80;66.70;;;;;;5051927;28;20049;-48
2022/01/02 20:59:02;;;;;;;2.40;1.10;;;22.70;66.60;;;;;;5052321;28;20048;-49
2022/01/02 21:01:29;;;;;;;4.22;1.55;;;22.70;66.60;;;;;;5050697;28;20151;-48
2022/01/02 21:03:56;;;;;;;2.83;1.15;;;22.70;66.70;;;;;;5051545;28;20045;-50
2022/01/02 21:06:23;;;;;;;3.05;1.08;;;22.70;66.80;;;;;;5050367;28;20076;-50
2022/01/02 21:08:49;;;;;;;2.08;1.15;;;22.70;67.50;;;;;;5051522;28;20076;-51
2022/01/02 21:11:16;;;;;;;2.67;1.20;;;22.70;66.80;;;;;;5051621;28;20084;-52
2022/01/02 21:13:43;;;;;;;3.75;1.33;;;22.70;66.90;;;;;;5051479;28;20095;-48
2022/01/02 21:16:11;;;;;;;2.67;1.10;;;22.70;66.80;;;;;;5052513;28;20061;-50
2022/01/02 21:18:38;;;;;;;2.83;1.20;;;22.70;66.80;;;;;;5050467;28;20052;-49
2022/01/02 21:21:09;;;;;;;2.35;0.90;;;22.70;66.70;;;;;;5050245;28;20135;-50
2022/01/02 21:23:36;;;;;;;2.65;1.30;;;22.70;66.80;;;;;;5051652;28;20399;-52
2022/01/02 21:26:03;;;;;;;5.80;2.22;;;22.70;66.80;;;;;;5051605;28;20099;-54
2022/01/02 21:28:30;;;;;;;3.65;1.15;;;22.70;66.80;;;;;;5050696;28;20139;-51
2022/01/02 21:30:56;;;;;;;3.08;1.17;;;22.70;66.80;;;;;;5050484;28;20080;-49
2022/01/02 21:33:23;;;;;;;4.13;1.38;;;22.70;66.80;;;;;;5050376;28;20386;-51
2022/01/02 21:35:50;;;;;;;1.80;1.10;;;22.80;66.70;;;;;;5051203;28;20103;-49
2022/01/02 21:38:17;;;;;;;2.20;1.02;;;22.80;66.80;;;;;;5051510;28;20080;-51
2022/01/02 21:40:45;;;;;;;2.53;1.35;;;22.80;66.80;;;;;;5032473;28;20083;-48
2022/01/02 21:43:12;;;;;;;2.88;1.10;;;22.80;66.80;;;;;;5051197;28;20463;-52
2022/01/02 21:45:39;;;;;;;2.35;1.20;;;22.80;66.80;;;;;;5051429;28;20068;-51
2022/01/02 21:48:06;;;;;;;2.70;1.30;;;22.80;66.70;;;;;;5049884;28;20045;-53
2022/01/02 21:50:34;;;;;;;2.03;1.00;;;22.80;66.70;;;;;;5033404;28;20081;-53
2022/01/02 21:53:04;;;;;;;4.07;1.77;;;22.80;66.70;;;;;;5047356;28;20047;-50
2022/01/02 21:55:32;;;;;;;2.67;1.05;;;22.80;66.80;;;;;;5051128;28;20420;-50
2022/01/02 21:57:58;;;;;;;3.78;1.58;;;22.90;66.60;;;;;;5051192;28;20441;-54
2022/01/02 22:00:28;;;;;;;3.80;1.73;;;22.90;67.20;;;;;;5049843;28;20471;-54
2022/01/02 22:02:57;;;;;;;2.33;1.02;;;22.90;66.50;;;;;;5050760;28;20467;-52
